sensor_id;sensor_type;location;lat;lon;timestamp;P1;durP1;ratioP1;P2;durP2;ratioP2
24743;SDS011;12844;52.110;5.548;2023-05-10T05:46:50;11.50;;;7.03;;
24743;SDS011;12844;52.110;5.548;2023-05-10T05:49:16;9.18;;;6.35;;
24743;SDS011;12844;52.110;5.548;2023-05-10T05:51:41;10.18;;;7.15;;
24743;SDS011;12844;52.110;5.548;2023-05-10T05:54:07;10.48;;;6.93;;
24743;SDS011;12844;52.110;5.548;2023-05-10T05:56:32;10.65;;;6.93;;
24743;SDS011;12844;52.110;5.548;2023-05-10T05:58:58;11.73;;;7.45;;
24743;SDS011;12844;52.110;5.548;2023-05-10T06:01:23;9.07;;;6.53;;
24743;SDS011;12844;52.110;5.548;2023-05-10T06:03:49;13.23;;;8.10;;
24743;SDS011;12844;52.110;5.548;2023-05-10T06:06:14;10.68;;;7.00;;
24743;SDS011;12844;52.110;5.548;2023-05-10T06:08:40;12.20;;;7.22;;
24743;SDS011;12844;52.110;5.548;2023-05-10T06:11:05;10.60;;;7.00;;
24743;SDS011;12844;52.110;5.548;2023-05-10T06:13:31;10.85;;;7.32;;
24743;SDS011;12844;52.110;5.548;2023-05-10T06:15:58;11.15;;;7.13;;
24743;SDS011;12844;52.110;5.548;2023-05-10T06:18:24;12.68;;;8.00;;
24743;SDS011;12844;52.110;5.548;2023-05-10T06:20:50;12.93;;;8.43;;
24743;SDS011;12844;52.110;5.548;2023-05-10T06:23:16;11.25;;;7.60;;
24743;SDS011;12844;52.110;5.548;2023-05-10T06:25:42;11.70;;;7.72;;
24743;SDS011;12844;52.110;5.548;2023-05-10T06:28:07;10.32;;;7.47;;
24743;SDS011;12844;52.110;5.548;2023-05-10T06:30:33;11.30;;;6.97;;
24743;SDS011;12844;52.110;5.548;2023-05-10T06:32:58;11.55;;;7.63;;
24743;SDS011;12844;52.110;5.548;2023-05-10T06:35:24;9.98;;;6.97;;
24743;SDS011;12844;52.110;5.548;2023-05-10T06:37:50;10.07;;;6.78;;
24743;SDS011;12844;52.110;5.548;2023-05-10T06:40:16;9.63;;;6.72;;
24743;SDS011;12844;52.110;5.548;2023-05-10T06:42:41;9.02;;;5.95;;
24743;SDS011;12844;52.110;5.548;2023-05-10T06:45:07;9.70;;;7.05;;
24743;SDS011;12844;52.110;5.548;2023-05-10T06:47:34;10.48;;;6.63;;
24743;SDS011;12844;52.110;5.548;2023-05-10T06:49:59;10.30;;;6.97;;
24743;SDS011;12844;52.110;5.548;2023-05-10T06:52:25;9.63;;;7.05;;
24743;SDS011;12844;52.110;5.548;2023-05-10T06:54:50;9.00;;;6.07;;
24743;SDS011;12844;52.110;5.548;2023-05-10T06:57:16;9.73;;;6.45;;
24743;SDS011;12844;52.110;5.548;2023-05-10T06:59:42;9.05;;;6.63;;
24743;SDS011;12844;52.110;5.548;2023-05-10T07:02:08;10.18;;;6.93;;
24743;SDS011;12844;52.110;5.548;2023-05-10T07:04:33;9.68;;;6.72;;
24743;SDS011;12844;52.110;5.548;2023-05-10T07:06:59;8.15;;;6.25;;
24743;SDS011;12844;52.110;5.548;2023-05-10T07:09:24;10.00;;;7.00;;
24743;SDS011;12844;52.110;5.548;2023-05-10T07:11:50;9.80;;;6.70;;
24743;SDS011;12844;52.110;5.548;2023-05-10T07:14:15;9.68;;;7.00;;
24743;SDS011;12844;52.110;5.548;2023-05-10T07:16:41;9.05;;;6.60;;
24743;SDS011;12844;52.110;5.548;2023-05-10T07:19:07;8.80;;;6.75;;
24743;SDS011;12844;52.110;5.548;2023-05-10T07:21:32;9.02;;;6.55;;
24743;SDS011;12844;52.110;5.548;2023-05-10T07:23:58;9.63;;;6.72;;
24743;SDS011;12844;52.110;5.548;2023-05-10T07:26:24;8.40;;;6.18;;
24743;SDS011;12844;52.110;5.548;2023-05-10T07:28:50;9.05;;;6.85;;
24743;SDS011;12844;52.110;5.548;2023-05-10T07:31:15;9.45;;;6.55;;
24743;SDS011;12844;52.110;5.548;2023-05-10T07:33:41;10.00;;;7.25;;
24743;SDS011;12844;52.110;5.548;2023-05-10T07:36:06;10.20;;;7.55;;
24743;SDS011;12844;52.110;5.548;2023-05-10T07:38:32;8.93;;;6.97;;
24743;SDS011;12844;52.110;5.548;2023-05-10T07:40:57;8.77;;;6.25;;
24743;SDS011;12844;52.110;5.548;2023-05-10T07:43:23;9.73;;;7.00;;
24743;SDS011;12844;52.110;5.548;2023-05-10T07:45:48;10.70;;;7.47;;
24743;SDS011;12844;52.110;5.548;2023-05-10T07:48:14;9.27;;;6.18;;
24743;SDS011;12844;52.110;5.548;2023-05-10T07:50:39;9.13;;;6.32;;
24743;SDS011;12844;52.110;5.548;2023-05-10T07:53:05;8.45;;;6.40;;
24743;SDS011;12844;52.110;5.548;2023-05-10T07:55:31;9.02;;;6.80;;
24743;SDS011;12844;52.110;5.548;2023-05-10T07:57:57;8.73;;;6.32;;
24743;SDS011;12844;52.110;5.548;2023-05-10T08:00:22;8.27;;;6.32;;
24743;SDS011;12844;52.110;5.548;2023-05-10T08:02:48;8.32;;;6.10;;
24743;SDS011;12844;52.110;5.548;2023-05-10T08:05:13;8.55;;;6.32;;
24743;SDS011;12844;52.110;5.548;2023-05-10T08:07:39;8.75;;;6.30;;
24743;SDS011;12844;52.110;5.548;2023-05-10T08:10:05;9.38;;;6.40;;
24743;SDS011;12844;52.110;5.548;2023-05-10T08:12:31;8.82;;;6.30;;
24743;SDS011;12844;52.110;5.548;2023-05-10T08:14:56;9.15;;;6.45;;
24743;SDS011;12844;52.110;5.548;2023-05-10T08:17:22;8.85;;;6.53;;
24743;SDS011;12844;52.110;5.548;2023-05-10T08:19:48;8.00;;;6.28;;
24743;SDS011;12844;52.110;5.548;2023-05-10T08:22:13;7.88;;;6.07;;
24743;SDS011;12844;52.110;5.548;2023-05-10T08:24:39;9.10;;;6.57;;
24743;SDS011;12844;52.110;5.548;2023-05-10T08:27:07;9.18;;;6.95;;
24743;SDS011;12844;52.110;5.548;2023-05-10T08:29:32;8.32;;;6.00;;
24743;SDS011;12844;52.110;5.548;2023-05-10T08:31:58;8.38;;;6.40;;
24743;SDS011;12844;52.110;5.548;2023-05-10T08:34:25;8.65;;;6.40;;
24743;SDS011;12844;52.110;5.548;2023-05-10T08:36:51;8.63;;;6.20;;
24743;SDS011;12844;52.110;5.548;2023-05-10T08:39:17;8.38;;;6.30;;
24743;SDS011;12844;52.110;5.548;2023-05-10T08:41:43;8.50;;;5.85;;
24743;SDS011;12844;52.110;5.548;2023-05-10T08:44:11;8.18;;;6.10;;
24743;SDS011;12844;52.110;5.548;2023-05-10T08:46:37;7.97;;;6.13;;
24743;SDS011;12844;52.110;5.548;2023-05-10T08:49:08;7.20;;;5.60;;
24743;SDS011;12844;52.110;5.548;2023-05-10T08:51:37;9.18;;;6.10;;
24743;SDS011;12844;52.110;5.548;2023-05-10T08:54:08;8.02;;;5.75;;
24743;SDS011;12844;52.110;5.548;2023-05-10T08:56:34;7.30;;;5.78;;
24743;SDS011;12844;52.110;5.548;2023-05-10T08:59:01;7.75;;;6.13;;
24743;SDS011;12844;52.110;5.548;2023-05-10T09:01:26;8.02;;;5.72;;
24743;SDS011;12844;52.110;5.548;2023-05-10T09:03:54;7.95;;;6.15;;
24743;SDS011;12844;52.110;5.548;2023-05-10T09:06:20;7.53;;;5.30;;
24743;SDS011;12844;52.110;5.548;2023-05-10T09:08:45;7.72;;;5.75;;
24743;SDS011;12844;52.110;5.548;2023-05-10T09:11:11;7.25;;;5.88;;
24743;SDS011;12844;52.110;5.548;2023-05-10T09:13:38;8.18;;;6.07;;
24743;SDS011;12844;52.110;5.548;2023-05-10T09:16:04;7.45;;;5.80;;
24743;SDS011;12844;52.110;5.548;2023-05-10T09:18:30;6.90;;;5.65;;
24743;SDS011;12844;52.110;5.548;2023-05-10T09:20:55;6.78;;;5.45;;
24743;SDS011;12844;52.110;5.548;2023-05-10T09:23:21;8.27;;;6.22;;
24743;SDS011;12844;52.110;5.548;2023-05-10T09:25:47;7.38;;;5.57;;
24743;SDS011;12844;52.110;5.548;2023-05-10T09:28:12;7.18;;;5.55;;
24743;SDS011;12844;52.110;5.548;2023-05-10T09:30:38;8.27;;;6.10;;
24743;SDS011;12844;52.110;5.548;2023-05-10T09:33:04;7.72;;;6.25;;
24743;SDS011;12844;52.110;5.548;2023-05-10T09:35:30;7.38;;;5.43;;
24743;SDS011;12844;52.110;5.548;2023-05-10T09:38:04;6.85;;;5.57;;
24743;SDS011;12844;52.110;5.548;2023-05-10T09:40:30;7.45;;;5.57;;
24743;SDS011;12844;52.110;5.548;2023-05-10T09:42:57;7.70;;;5.68;;
24743;SDS011;12844;52.110;5.548;2023-05-10T09:45:24;7.47;;;5.57;;
24743;SDS011;12844;52.110;5.548;2023-05-10T09:47:51;6.80;;;5.03;;
24743;SDS011;12844;52.110;5.548;2023-05-10T09:50:18;7.10;;;5.60;;
24743;SDS011;12844;52.110;5.548;2023-05-10T09:52:52;7.28;;;5.70;;
24743;SDS011;12844;52.110;5.548;2023-05-10T09:55:19;6.88;;;5.45;;
24743;SDS011;12844;52.110;5.548;2023-05-10T09:57:46;6.88;;;5.20;;
24743;SDS011;12844;52.110;5.548;2023-05-10T10:00:17;7.07;;;5.30;;
24743;SDS011;12844;52.110;5.548;2023-05-10T10:02:45;7.00;;;5.57;;
24743;SDS011;12844;52.110;5.548;2023-05-10T10:05:19;7.25;;;5.30;;
24743;SDS011;12844;52.110;5.548;2023-05-10T10:07:44;6.93;;;5.28;;
24743;SDS011;12844;52.110;5.548;2023-05-10T10:10:10;5.75;;;4.75;;
24743;SDS011;12844;52.110;5.548;2023-05-10T10:12:37;6.70;;;5.00;;
24743;SDS011;12844;52.110;5.548;2023-05-10T10:15:04;6.72;;;5.35;;
24743;SDS011;12844;52.110;5.548;2023-05-10T10:17:31;6.60;;;4.88;;
24743;SDS011;12844;52.110;5.548;2023-05-10T10:20:00;5.90;;;4.68;;
24743;SDS011;12844;52.110;5.548;2023-05-10T10:22:28;6.38;;;4.85;;
24743;SDS011;12844;52.110;5.548;2023-05-10T10:24:53;6.47;;;4.68;;
24743;SDS011;12844;52.110;5.548;2023-05-10T10:30:35;6.25;;;4.90;;
24743;SDS011;12844;52.110;5.548;2023-05-10T10:36:12;5.50;;;4.35;;
24743;SDS011;12844;52.110;5.548;2023-05-10T10:41:29;5.78;;;4.60;;
24743;SDS011;12844;52.110;5.548;2023-05-10T10:47:03;5.63;;;4.30;;
24743;SDS011;12844;52.110;5.548;2023-05-10T10:50:02;5.95;;;4.68;;
24743;SDS011;12844;52.110;5.548;2023-05-10T10:55:14;5.47;;;4.70;;
24743;SDS011;12844;52.110;5.548;2023-05-10T10:57:50;6.25;;;4.88;;
24743;SDS011;12844;52.110;5.548;2023-05-10T11:02:51;5.40;;;4.50;;
24743;SDS011;12844;52.110;5.548;2023-05-10T11:07:59;5.10;;;4.03;;
24743;SDS011;12844;52.110;5.548;2023-05-10T11:10:25;5.43;;;4.40;;
24743;SDS011;12844;52.110;5.548;2023-05-10T11:15:31;4.90;;;4.25;;
24743;SDS011;12844;52.110;5.548;2023-05-10T11:17:58;5.70;;;4.30;;
24743;SDS011;12844;52.110;5.548;2023-05-10T11:20:26;5.20;;;4.40;;
24743;SDS011;12844;52.110;5.548;2023-05-10T11:22:58;4.70;;;4.10;;
24743;SDS011;12844;52.110;5.548;2023-05-10T11:25:41;5.18;;;4.22;;
24743;SDS011;12844;52.110;5.548;2023-05-10T11:28:08;5.50;;;4.30;;
24743;SDS011;12844;52.110;5.548;2023-05-10T11:30:34;5.00;;;4.50;;
24743;SDS011;12844;52.110;5.548;2023-05-10T11:32:59;5.50;;;4.25;;
24743;SDS011;12844;52.110;5.548;2023-05-10T11:35:27;4.90;;;4.15;;
24743;SDS011;12844;52.110;5.548;2023-05-10T11:37:52;4.65;;;4.03;;
24743;SDS011;12844;52.110;5.548;2023-05-10T11:40:18;5.78;;;4.90;;
24743;SDS011;12844;52.110;5.548;2023-05-10T11:42:44;4.90;;;4.30;;
24743;SDS011;12844;52.110;5.548;2023-05-10T11:45:10;4.90;;;4.13;;
24743;SDS011;12844;52.110;5.548;2023-05-10T11:47:36;5.60;;;4.30;;
24743;SDS011;12844;52.110;5.548;2023-05-10T11:50:02;4.65;;;3.95;;
24743;SDS011;12844;52.110;5.548;2023-05-10T11:52:28;4.60;;;3.75;;
24743;SDS011;12844;52.110;5.548;2023-05-10T11:54:54;4.00;;;3.42;;
24743;SDS011;12844;52.110;5.548;2023-05-10T11:57:20;4.57;;;3.92;;
24743;SDS011;12844;52.110;5.548;2023-05-10T12:02:23;4.47;;;3.83;;
24743;SDS011;12844;52.110;5.548;2023-05-10T12:04:50;4.93;;;4.13;;
24743;SDS011;12844;52.110;5.548;2023-05-10T12:07:16;4.45;;;3.90;;
24743;SDS011;12844;52.110;5.548;2023-05-10T12:09:43;4.97;;;3.80;;
24743;SDS011;12844;52.110;5.548;2023-05-10T12:12:09;4.72;;;3.80;;
24743;SDS011;12844;52.110;5.548;2023-05-10T12:14:40;4.40;;;3.92;;
24743;SDS011;12844;52.110;5.548;2023-05-10T12:17:05;4.43;;;3.40;;
24743;SDS011;12844;52.110;5.548;2023-05-10T12:19:37;3.42;;;3.03;;
24743;SDS011;12844;52.110;5.548;2023-05-10T12:24:30;4.53;;;3.38;;
24743;SDS011;12844;52.110;5.548;2023-05-10T12:26:55;4.32;;;3.58;;
24743;SDS011;12844;52.110;5.548;2023-05-10T12:29:21;4.43;;;3.70;;
24743;SDS011;12844;52.110;5.548;2023-05-10T12:31:51;3.92;;;3.53;;
24743;SDS011;12844;52.110;5.548;2023-05-10T12:34:31;4.30;;;3.28;;
24743;SDS011;12844;52.110;5.548;2023-05-10T12:36:58;4.93;;;3.40;;
24743;SDS011;12844;52.110;5.548;2023-05-10T12:39:24;4.22;;;3.50;;
24743;SDS011;12844;52.110;5.548;2023-05-10T12:41:50;4.00;;;3.60;;
24743;SDS011;12844;52.110;5.548;2023-05-10T12:44:16;4.75;;;3.90;;
24743;SDS011;12844;52.110;5.548;2023-05-10T12:46:43;3.90;;;3.40;;
24743;SDS011;12844;52.110;5.548;2023-05-10T12:49:08;4.00;;;3.28;;
24743;SDS011;12844;52.110;5.548;2023-05-10T12:51:34;4.07;;;3.28;;
24743;SDS011;12844;52.110;5.548;2023-05-10T12:54:00;3.72;;;3.03;;
24743;SDS011;12844;52.110;5.548;2023-05-10T12:56:25;3.75;;;3.08;;
24743;SDS011;12844;52.110;5.548;2023-05-10T12:58:51;4.18;;;3.30;;
24743;SDS011;12844;52.110;5.548;2023-05-10T13:01:16;3.95;;;3.22;;
24743;SDS011;12844;52.110;5.548;2023-05-10T13:03:42;3.67;;;3.25;;
24743;SDS011;12844;52.110;5.548;2023-05-10T13:06:10;3.53;;;3.22;;
24743;SDS011;12844;52.110;5.548;2023-05-10T13:08:38;3.95;;;3.20;;
24743;SDS011;12844;52.110;5.548;2023-05-10T13:11:03;3.78;;;3.28;;
24743;SDS011;12844;52.110;5.548;2023-05-10T13:13:30;3.20;;;2.88;;
24743;SDS011;12844;52.110;5.548;2023-05-10T13:15:56;2.90;;;2.60;;
24743;SDS011;12844;52.110;5.548;2023-05-10T13:18:21;4.25;;;3.35;;
24743;SDS011;12844;52.110;5.548;2023-05-10T13:20:47;3.20;;;2.90;;
24743;SDS011;12844;52.110;5.548;2023-05-10T13:23:14;3.25;;;2.85;;
24743;SDS011;12844;52.110;5.548;2023-05-10T13:25:40;3.30;;;3.00;;
24743;SDS011;12844;52.110;5.548;2023-05-10T13:28:05;3.38;;;2.70;;
24743;SDS011;12844;52.110;5.548;2023-05-10T13:30:31;3.10;;;2.75;;
24743;SDS011;12844;52.110;5.548;2023-05-10T13:32:56;3.03;;;2.72;;
24743;SDS011;12844;52.110;5.548;2023-05-10T13:35:22;3.22;;;2.78;;
24743;SDS011;12844;52.110;5.548;2023-05-10T13:37:47;3.33;;;3.03;;
24743;SDS011;12844;52.110;5.548;2023-05-10T13:40:13;3.47;;;3.08;;
24743;SDS011;12844;52.110;5.548;2023-05-10T13:42:40;3.15;;;2.85;;
24743;SDS011;12844;52.110;5.548;2023-05-10T13:45:06;3.58;;;3.00;;
24743;SDS011;12844;52.110;5.548;2023-05-10T13:47:31;3.25;;;2.75;;
24743;SDS011;12844;52.110;5.548;2023-05-10T13:49:57;3.55;;;2.90;;
24743;SDS011;12844;52.110;5.548;2023-05-10T13:52:23;3.58;;;3.00;;
24743;SDS011;12844;52.110;5.548;2023-05-10T13:54:48;3.08;;;2.72;;
24743;SDS011;12844;52.110;5.548;2023-05-10T13:57:14;3.15;;;2.58;;
24743;SDS011;12844;52.110;5.548;2023-05-10T13:59:41;3.30;;;2.72;;
24743;SDS011;12844;52.110;5.548;2023-05-10T14:02:07;3.65;;;2.85;;
24743;SDS011;12844;52.110;5.548;2023-05-10T14:04:32;3.42;;;2.90;;
24743;SDS011;12844;52.110;5.548;2023-05-10T14:07:00;3.13;;;2.70;;
24743;SDS011;12844;52.110;5.548;2023-05-10T14:09:25;3.30;;;2.85;;
24743;SDS011;12844;52.110;5.548;2023-05-10T14:11:51;4.15;;;2.85;;
24743;SDS011;12844;52.110;5.548;2023-05-10T14:14:17;3.38;;;2.60;;
24743;SDS011;12844;52.110;5.548;2023-05-10T14:16:43;3.45;;;2.80;;
24743;SDS011;12844;52.110;5.548;2023-05-10T14:19:09;3.22;;;2.92;;
24743;SDS011;12844;52.110;5.548;2023-05-10T14:21:35;2.95;;;2.47;;
24743;SDS011;12844;52.110;5.548;2023-05-10T14:24:01;2.97;;;2.67;;
24743;SDS011;12844;52.110;5.548;2023-05-10T14:26:26;3.30;;;2.78;;
24743;SDS011;12844;52.110;5.548;2023-05-10T14:28:52;3.00;;;2.65;;
24743;SDS011;12844;52.110;5.548;2023-05-10T14:31:18;3.20;;;2.80;;
24743;SDS011;12844;52.110;5.548;2023-05-10T14:33:45;3.47;;;2.92;;
24743;SDS011;12844;52.110;5.548;2023-05-10T14:36:11;3.08;;;2.78;;
24743;SDS011;12844;52.110;5.548;2023-05-10T14:38:37;3.30;;;2.80;;
24743;SDS011;12844;52.110;5.548;2023-05-10T14:41:02;3.38;;;2.88;;
24743;SDS011;12844;52.110;5.548;2023-05-10T14:43:28;2.97;;;2.60;;
24743;SDS011;12844;52.110;5.548;2023-05-10T14:45:54;3.22;;;2.55;;
24743;SDS011;12844;52.110;5.548;2023-05-10T14:48:19;3.00;;;2.70;;
24743;SDS011;12844;52.110;5.548;2023-05-10T14:50:46;2.85;;;2.50;;
24743;SDS011;12844;52.110;5.548;2023-05-10T14:53:11;2.83;;;2.55;;
24743;SDS011;12844;52.110;5.548;2023-05-10T14:55:37;2.80;;;2.47;;
24743;SDS011;12844;52.110;5.548;2023-05-10T14:58:03;3.03;;;2.15;;
24743;SDS011;12844;52.110;5.548;2023-05-10T15:00:29;3.13;;;2.60;;
24743;SDS011;12844;52.110;5.548;2023-05-10T15:02:55;3.13;;;2.50;;
24743;SDS011;12844;52.110;5.548;2023-05-10T15:05:21;2.90;;;2.58;;
24743;SDS011;12844;52.110;5.548;2023-05-10T15:07:47;2.60;;;2.40;;
24743;SDS011;12844;52.110;5.548;2023-05-10T15:10:12;2.85;;;2.53;;
24743;SDS011;12844;52.110;5.548;2023-05-10T15:12:38;3.03;;;2.65;;
24743;SDS011;12844;52.110;5.548;2023-05-10T15:15:04;2.63;;;2.42;;
24743;SDS011;12844;52.110;5.548;2023-05-10T15:17:31;3.08;;;2.70;;
24743;SDS011;12844;52.110;5.548;2023-05-10T15:19:56;3.78;;;2.50;;
24743;SDS011;12844;52.110;5.548;2023-05-10T15:22:22;2.92;;;2.38;;
24743;SDS011;12844;52.110;5.548;2023-05-10T15:24:47;3.42;;;2.70;;
24743;SDS011;12844;52.110;5.548;2023-05-10T15:27:13;2.78;;;2.33;;
24743;SDS011;12844;52.110;5.548;2023-05-10T15:29:38;4.15;;;2.47;;
24743;SDS011;12844;52.110;5.548;2023-05-10T15:32:04;2.78;;;2.47;;
24743;SDS011;12844;52.110;5.548;2023-05-10T15:34:30;2.83;;;2.40;;
24743;SDS011;12844;52.110;5.548;2023-05-10T15:36:56;3.15;;;2.78;;
24743;SDS011;12844;52.110;5.548;2023-05-10T15:39:21;2.95;;;2.65;;
24743;SDS011;12844;52.110;5.548;2023-05-10T15:41:47;2.55;;;2.10;;
24743;SDS011;12844;52.110;5.548;2023-05-10T15:44:12;3.55;;;2.40;;
24743;SDS011;12844;52.110;5.548;2023-05-10T15:46:38;2.92;;;2.63;;
24743;SDS011;12844;52.110;5.548;2023-05-10T15:49:03;3.00;;;2.40;;
24743;SDS011;12844;52.110;5.548;2023-05-10T15:51:30;2.50;;;2.30;;
24743;SDS011;12844;52.110;5.548;2023-05-10T15:53:57;2.30;;;2.10;;
24743;SDS011;12844;52.110;5.548;2023-05-10T15:56:23;2.65;;;2.30;;
24743;SDS011;12844;52.110;5.548;2023-05-10T15:58:48;3.08;;;2.72;;
24743;SDS011;12844;52.110;5.548;2023-05-10T16:01:14;2.90;;;2.60;;
24743;SDS011;12844;52.110;5.548;2023-05-10T16:03:40;2.47;;;2.15;;
24743;SDS011;12844;52.110;5.548;2023-05-10T16:06:06;2.92;;;2.38;;
24743;SDS011;12844;52.110;5.548;2023-05-10T16:08:32;3.03;;;2.35;;
24743;SDS011;12844;52.110;5.548;2023-05-10T16:10:58;2.60;;;2.28;;
24743;SDS011;12844;52.110;5.548;2023-05-10T16:13:24;2.22;;;2.03;;
24743;SDS011;12844;52.110;5.548;2023-05-10T16:15:50;2.63;;;2.25;;
24743;SDS011;12844;52.110;5.548;2023-05-10T16:18:16;3.22;;;2.60;;
24743;SDS011;12844;52.110;5.548;2023-05-10T16:20:42;2.80;;;2.45;;
24743;SDS011;12844;52.110;5.548;2023-05-10T16:23:08;3.53;;;2.47;;
24743;SDS011;12844;52.110;5.548;2023-05-10T16:25:34;2.88;;;2.38;;
24743;SDS011;12844;52.110;5.548;2023-05-10T16:27:59;2.40;;;1.95;;
24743;SDS011;12844;52.110;5.548;2023-05-10T16:30:25;2.53;;;2.25;;
24743;SDS011;12844;52.110;5.548;2023-05-10T16:32:53;2.33;;;2.13;;
24743;SDS011;12844;52.110;5.548;2023-05-10T16:35:19;2.85;;;2.33;;
24743;SDS011;12844;52.110;5.548;2023-05-10T16:37:45;3.10;;;2.60;;
24743;SDS011;12844;52.110;5.548;2023-05-10T16:40:11;3.08;;;2.45;;
24743;SDS011;12844;52.110;5.548;2023-05-10T16:42:36;2.35;;;2.00;;
24743;SDS011;12844;52.110;5.548;2023-05-10T16:45:02;2.53;;;2.28;;
24743;SDS011;12844;52.110;5.548;2023-05-10T16:47:38;2.83;;;2.35;;
24743;SDS011;12844;52.110;5.548;2023-05-10T16:50:04;3.00;;;2.50;;
24743;SDS011;12844;52.110;5.548;2023-05-10T16:52:31;2.33;;;2.10;;
24743;SDS011;12844;52.110;5.548;2023-05-10T16:54:59;2.58;;;2.15;;
24743;SDS011;12844;52.110;5.548;2023-05-10T16:57:25;2.58;;;2.10;;
24743;SDS011;12844;52.110;5.548;2023-05-10T16:59:51;2.47;;;2.28;;
24743;SDS011;12844;52.110;5.548;2023-05-10T17:02:20;2.67;;;2.25;;
24743;SDS011;12844;52.110;5.548;2023-05-10T17:04:46;2.80;;;2.40;;
24743;SDS011;12844;52.110;5.548;2023-05-10T17:07:12;2.80;;;2.33;;
24743;SDS011;12844;52.110;5.548;2023-05-10T17:09:38;2.38;;;2.17;;
24743;SDS011;12844;52.110;5.548;2023-05-10T17:12:05;2.33;;;2.13;;
24743;SDS011;12844;52.110;5.548;2023-05-10T17:14:31;2.80;;;2.20;;
24743;SDS011;12844;52.110;5.548;2023-05-10T17:16:56;2.47;;;2.25;;
24743;SDS011;12844;52.110;5.548;2023-05-10T17:19:22;2.33;;;2.00;;
24743;SDS011;12844;52.110;5.548;2023-05-10T17:21:47;2.83;;;2.40;;
24743;SDS011;12844;52.110;5.548;2023-05-10T17:24:13;2.90;;;2.47;;
24743;SDS011;12844;52.110;5.548;2023-05-10T17:26:39;2.45;;;2.10;;
24743;SDS011;12844;52.110;5.548;2023-05-10T17:29:05;2.92;;;2.17;;
24743;SDS011;12844;52.110;5.548;2023-05-10T17:31:30;2.65;;;2.30;;
24743;SDS011;12844;52.110;5.548;2023-05-10T17:33:57;2.75;;;2.25;;
24743;SDS011;12844;52.110;5.548;2023-05-10T17:36:22;2.58;;;2.30;;
24743;SDS011;12844;52.110;5.548;2023-05-10T17:38:48;2.60;;;2.10;;
24743;SDS011;12844;52.110;5.548;2023-05-10T17:41:14;2.90;;;2.45;;
24743;SDS011;12844;52.110;5.548;2023-05-10T17:43:41;2.45;;;2.20;;
24743;SDS011;12844;52.110;5.548;2023-05-10T17:46:06;2.63;;;2.28;;
24743;SDS011;12844;52.110;5.548;2023-05-10T17:48:32;3.60;;;2.30;;
24743;SDS011;12844;52.110;5.548;2023-05-10T17:50:57;2.85;;;2.28;;
24743;SDS011;12844;52.110;5.548;2023-05-10T17:53:23;3.33;;;2.47;;
24743;SDS011;12844;52.110;5.548;2023-05-10T17:55:50;2.60;;;2.25;;
24743;SDS011;12844;52.110;5.548;2023-05-10T17:58:15;2.50;;;2.20;;
24743;SDS011;12844;52.110;5.548;2023-05-10T18:00:41;2.30;;;2.00;;
24743;SDS011;12844;52.110;5.548;2023-05-10T18:03:06;2.20;;;2.00;;
24743;SDS011;12844;52.110;5.548;2023-05-10T18:05:36;2.78;;;2.30;;
24743;SDS011;12844;52.110;5.548;2023-05-10T18:08:02;2.35;;;2.00;;
24743;SDS011;12844;52.110;5.548;2023-05-10T18:10:28;2.38;;;2.05;;
24743;SDS011;12844;52.110;5.548;2023-05-10T18:12:54;2.80;;;2.40;;
24743;SDS011;12844;52.110;5.548;2023-05-10T18:15:21;3.17;;;2.40;;
24743;SDS011;12844;52.110;5.548;2023-05-10T18:17:47;2.53;;;2.08;;
24743;SDS011;12844;52.110;5.548;2023-05-10T18:20:13;2.53;;;2.20;;
24743;SDS011;12844;52.110;5.548;2023-05-10T18:22:39;3.03;;;2.45;;
24743;SDS011;12844;52.110;5.548;2023-05-10T18:25:04;2.97;;;2.47;;
24743;SDS011;12844;52.110;5.548;2023-05-10T18:27:30;2.50;;;1.85;;
24743;SDS011;12844;52.110;5.548;2023-05-10T18:29:56;2.45;;;2.25;;
24743;SDS011;12844;52.110;5.548;2023-05-10T18:32:21;2.55;;;2.08;;
24743;SDS011;12844;52.110;5.548;2023-05-10T18:34:47;2.83;;;2.40;;
24743;SDS011;12844;52.110;5.548;2023-05-10T18:37:13;2.85;;;2.47;;
24743;SDS011;12844;52.110;5.548;2023-05-10T18:39:39;2.45;;;1.98;;
24743;SDS011;12844;52.110;5.548;2023-05-10T18:42:05;2.60;;;2.20;;
24743;SDS011;12844;52.110;5.548;2023-05-10T18:44:31;2.45;;;2.13;;
24743;SDS011;12844;52.110;5.548;2023-05-10T18:46:56;2.67;;;2.20;;
24743;SDS011;12844;52.110;5.548;2023-05-10T18:49:23;2.63;;;2.25;;
24743;SDS011;12844;52.110;5.548;2023-05-10T18:51:49;2.72;;;2.35;;
24743;SDS011;12844;52.110;5.548;2023-05-10T18:54:15;2.83;;;2.33;;
24743;SDS011;12844;52.110;5.548;2023-05-10T18:56:40;2.97;;;2.40;;
24743;SDS011;12844;52.110;5.548;2023-05-10T18:59:09;2.65;;;2.22;;
24743;SDS011;12844;52.110;5.548;2023-05-10T19:01:35;2.67;;;2.33;;
24743;SDS011;12844;52.110;5.548;2023-05-10T19:04:00;2.63;;;2.33;;
24743;SDS011;12844;52.110;5.548;2023-05-10T19:06:26;2.85;;;2.53;;
24743;SDS011;12844;52.110;5.548;2023-05-10T19:08:51;2.85;;;2.22;;
24743;SDS011;12844;52.110;5.548;2023-05-10T19:11:17;2.67;;;2.45;;
24743;SDS011;12844;52.110;5.548;2023-05-10T19:13:43;3.67;;;2.40;;
24743;SDS011;12844;52.110;5.548;2023-05-10T19:16:10;3.05;;;2.55;;
24743;SDS011;12844;52.110;5.548;2023-05-10T19:18:37;2.83;;;2.38;;
24743;SDS011;12844;52.110;5.548;2023-05-10T19:21:03;2.85;;;2.55;;
24743;SDS011;12844;52.110;5.548;2023-05-10T19:23:31;2.90;;;2.60;;
24743;SDS011;12844;52.110;5.548;2023-05-10T19:25:58;2.75;;;2.25;;
24743;SDS011;12844;52.110;5.548;2023-05-10T19:28:23;2.35;;;2.15;;
24743;SDS011;12844;52.110;5.548;2023-05-10T19:30:49;3.10;;;2.50;;
24743;SDS011;12844;52.110;5.548;2023-05-10T19:33:16;2.97;;;2.65;;
24743;SDS011;12844;52.110;5.548;2023-05-10T19:35:42;2.58;;;2.20;;
24743;SDS011;12844;52.110;5.548;2023-05-10T19:38:08;2.65;;;2.20;;
24743;SDS011;12844;52.110;5.548;2023-05-10T19:40:34;2.85;;;2.33;;
24743;SDS011;12844;52.110;5.548;2023-05-10T19:43:00;2.67;;;2.30;;
24743;SDS011;12844;52.110;5.548;2023-05-10T19:45:25;3.05;;;2.75;;
24743;SDS011;12844;52.110;5.548;2023-05-10T19:47:51;2.80;;;2.22;;
24743;SDS011;12844;52.110;5.548;2023-05-10T19:50:17;3.60;;;2.30;;
24743;SDS011;12844;52.110;5.548;2023-05-10T19:52:43;3.58;;;2.45;;
24743;SDS011;12844;52.110;5.548;2023-05-10T19:55:09;2.50;;;2.00;;
24743;SDS011;12844;52.110;5.548;2023-05-10T19:57:35;2.85;;;2.40;;
24743;SDS011;12844;52.110;5.548;2023-05-10T20:00:00;2.70;;;2.20;;
24743;SDS011;12844;52.110;5.548;2023-05-10T20:02:28;2.50;;;2.15;;
24743;SDS011;12844;52.110;5.548;2023-05-10T20:04:53;3.33;;;2.33;;
24743;SDS011;12844;52.110;5.548;2023-05-10T20:07:19;2.95;;;2.35;;
24743;SDS011;12844;52.110;5.548;2023-05-10T20:09:44;2.88;;;2.45;;
24743;SDS011;12844;52.110;5.548;2023-05-10T20:12:10;2.60;;;2.40;;
24743;SDS011;12844;52.110;5.548;2023-05-10T20:14:36;3.03;;;2.20;;
24743;SDS011;12844;52.110;5.548;2023-05-10T20:17:02;2.70;;;2.28;;
24743;SDS011;12844;52.110;5.548;2023-05-10T20:19:27;3.08;;;2.40;;
24743;SDS011;12844;52.110;5.548;2023-05-10T20:21:53;2.75;;;2.20;;
24743;SDS011;12844;52.110;5.548;2023-05-10T20:24:21;2.63;;;2.20;;
24743;SDS011;12844;52.110;5.548;2023-05-10T20:26:47;2.75;;;2.55;;
24743;SDS011;12844;52.110;5.548;2023-05-10T20:29:12;2.80;;;2.40;;
24743;SDS011;12844;52.110;5.548;2023-05-10T20:31:38;2.58;;;2.10;;
24743;SDS011;12844;52.110;5.548;2023-05-10T20:34:03;2.58;;;2.38;;
24743;SDS011;12844;52.110;5.548;2023-05-10T20:36:29;2.70;;;2.22;;
24743;SDS011;12844;52.110;5.548;2023-05-10T20:38:55;2.58;;;2.17;;
24743;SDS011;12844;52.110;5.548;2023-05-10T20:41:21;2.58;;;2.17;;
24743;SDS011;12844;52.110;5.548;2023-05-10T20:43:46;2.97;;;2.33;;
24743;SDS011;12844;52.110;5.548;2023-05-10T20:46:12;2.67;;;2.47;;
24743;SDS011;12844;52.110;5.548;2023-05-10T20:48:37;3.30;;;2.42;;
24743;SDS011;12844;52.110;5.548;2023-05-10T20:51:03;2.55;;;2.20;;
24743;SDS011;12844;52.110;5.548;2023-05-10T20:53:28;2.90;;;2.40;;